AirNav   Pilot Hours Calculator
 
 1434 users online  

PS92 VA Medical Center Heliport
Lebanon, Pennsylvania, USA

GOING TO LEBANON?


FAA INFORMATION EFFECTIVE 05 DECEMBER 2019

Location

FAA Identifier: PS92
Lat/Long: 40-18-55.3310N 076-24-10.8580W
40-18.922183N 076-24.180967W
40.3153697,-76.4030161
(estimated)
Elevation: 510 ft. / 155 m (estimated)
Variation: 11W (1985)
From city: 1 mile S of LEBANON, PA
Time zone: UTC -5 (UTC -4 during Daylight Saving Time)
Zip code: 17042

Heliport Operations

Heliport use: Private use, MEDICAL USE.
Activation date: 07/1986
Control tower: no
ARTCC: NEW YORK CENTER
FSS: WILLIAMSPORT FLIGHT SERVICE STATION
Attendance: UNATNDD
Segmented circle: yes

Heliport Communications

WX AWOS-2 at 9D4 (4 nm NE): 118.45 (717-866-2906)
WX ASOS at MUI (10 nm NW): 124.175 (717-861-2536)
WX ASOS at LNS (13 nm SE): 125.675 (717-569-8860)
WX ASOS at MDT (18 nm SW): PHONE 717-944-1372

Nearby radio navigation aids

VOR radial/distance  VOR name  Freq  Var
LRPr345/12.8LANCASTER VOR/DME117.3009W
RAVr159/16.9RAVINE VORTAC114.6011W
HARr099/30.5HARRISBURG VORTAC112.5010W
SEGr150/36.0SELINSGROVE VOR/DME110.4008W
ETXr253/36.5EAST TEXAS VOR/DME110.2009W
PTWr287/39.0POTTSTOWN VORTAC116.5009W

 
NDB name  Hdg/Dist  Freq  Var  ID
BELLGROVE147/10.032810WBZJ -... --.. .---

Heliport Services

Runway Information

Helipad H1

Dimensions: 60 x 60 ft. / 18 x 18 m
Surface: turf
Traffic pattern: leftleft

Heliport Ownership and Management from official FAA records

Ownership: Publicly-owned
Owner: VA MEDICAL CENTER
1700 S. LINCOLN AVENUE
LEBANON, PA 17042
Phone 717-272-6621
Manager: THADDEUS S. KOCUBA
1700 S. LINCOLN AVENUE
LEBANON, PA 17042
Phone 717-228-6050

Additional Remarks

FOR CD CTC HARRISBURG APCH AT 800-932-0712.

Instrument Procedures

There are no published instrument procedures at PS92.

Some nearby airports with instrument procedures:

08N - Keller Brothers Airport (4 nm SE)
9D4 - Deck Airport (4 nm NE)
58N - Reigle Field Airport (8 nm W)
KMUI - Muir Army Airfield (Fort Indiantown Gap) (10 nm NW)
KLNS - Lancaster Airport (13 nm SE)
N71 - Donegal Springs Airpark (16 nm SW)
74N - Bendigo Airport (16 nm NW)
KMDT - Harrisburg International Airport (18 nm SW)
 
Loc | Ops | Rwys | IFR | FBO | Links
Com | Nav | Svcs | Stats | Notes
Area around PS92 (VA Medical Center Heliport)
 
Road maps at: MapQuest Bing Google
 
Aerial photo
No photo
 
Sectional chart

 
Airport distance calculator
Flying to VA Medical Center Heliport? Find the distance to fly.

From to PS92

Sunrise and sunset
Times for 06-Dec-2019
 Local
(UTC-5)
 Zulu
(UTC)
Morning civil twilight06:4511:45
Sunrise07:1512:15
Sunset16:3821:38
Evening civil twilight17:0922:09

Current date and time
Zulu (UTC)  06-Dec-2019 16:04:19
Local (UTC-5)  06-Dec-2019 11:04:19
 
METAR
KMUI 
10nm NW 
061556Z AUTO 19006KT 10SM BKN110 BKN130 OVC150 06/M03 A3005 RMK AO2 SLP182 T00551026
KLNS 
13nm S 
061553Z 22010KT 10SM CLR 07/M03 A3007 RMK AO2 SLP184 T00721028
KMDT 
18nm W 
061556Z 21007KT 10SM SCT120 OVC200 07/M04 A3005 RMK AO2 PK WND 20026/1510 SLP177 T00721044
TAF
KMUI 
10nm NW 
061100Z 0611/0717 27006KT 9999 SCT030 BKN100 QNH3010INS BECMG 0616/0617 20012KT 9999 BKN080 QNH2999INS BECMG 0620/0621 21006KT 9000 -SHRA OVC020 QNH2998INS BECMG 0622/0623 30009KT 9999 NSW SCT030 QNH3001INS BECMG 0702/0703 31006KT 9999 FEW028 QNH3015INS BECMG 0714/0715 33010G15KT 9999 FEW130 QNH3039INS TX08/0617Z TNM01/0711Z
KLNS 
13nm S 
061159Z 0612/0712 VRB03KT P6SM BKN080 FM061700 26007KT P6SM BKN070 FM062000 28010KT P6SM OVC040 FM070000 31011G17KT P6SM SCT040
KMDT 
18nm W 
061159Z 0612/0712 10004KT P6SM BKN100 FM061700 26007KT P6SM BKN070 FM062000 28010KT P6SM OVC040 FM070000 31011G17KT P6SM SCT040
NOTAMs
Click for the latest NOTAMs
NOTAMs are issued by the DoD/FAA and will open in a separate window not controlled by AirNav.

 

 
 

Would you like to see your business listed on this page?

 If your business provides an interesting product or service to pilots, flight crews, aircraft, or users of the VA Medical Center Heliport, you should consider listing it here.  To start the listing process, click on the button below
 
Add a business
 

Other Pages about VA Medical Center Heliport

Update a link
 
Copyright © AirNav, LLC. All rights reserved. Privacy Policy  Contact